Time;durP1;ratioP1;P1;durP2;ratioP2;P2;SDS_P1;SDS_P2;PMS_P1;PMS_P2;Temp;Humidity;BMP_temperature;BMP_pressure;BME280_temperature;BME280_humidity;BME280_pressure;Samples;Min_cycle;Max_cycle;Signal;HPM_P1;HPM_P2
2022/07/02 00:00:08;;;;;;;2.87;1.97;;;12.70;99.90;;;;;;5072616;28;20484;-90
2022/07/02 00:02:39;;;;;;;3.37;1.60;;;12.70;99.90;;;;;;5072699;28;20515;-90
2022/07/02 00:05:07;;;;;;;1.97;1.80;;;12.70;99.90;;;;;;5072714;28;20461;-90
2022/07/02 00:07:34;;;;;;;4.03;2.30;;;12.60;99.90;;;;;;5072902;28;20458;-90
2022/07/02 00:10:01;;;;;;;2.30;2.10;;;12.60;99.90;;;;;;5072622;28;20508;-90
2022/07/02 00:12:29;;;;;;;2.00;1.90;;;12.60;99.90;;;;;;5072560;28;20492;-90
2022/07/02 00:14:58;;;;;;;2.10;1.90;;;12.60;99.90;;;;;;5075743;28;20482;-90
2022/07/02 00:17:25;;;;;;;2.30;2.10;;;12.60;99.90;;;;;;5076240;28;20964;-90
2022/07/02 00:19:55;;;;;;;3.83;2.20;;;12.60;99.90;;;;;;5076003;28;20465;-91
2022/07/02 00:22:24;;;;;;;2.60;1.73;;;12.50;99.90;;;;;;5075892;28;20647;-90
2022/07/02 00:24:51;;;;;;;2.23;1.90;;;12.50;99.90;;;;;;5075763;28;20477;-90
2022/07/02 00:27:19;;;;;;;2.30;2.10;;;12.50;99.90;;;;;;5075802;28;20458;-90
2022/07/02 00:29:51;;;;;;;2.37;2.17;;;12.50;99.90;;;;;;5075817;28;20451;-91
2022/07/02 00:32:18;;;;;;;2.10;2.00;;;12.50;99.90;;;;;;5075704;28;20501;-91
2022/07/02 00:34:47;;;;;;;2.20;1.77;;;12.50;99.90;;;;;;5075606;28;20227;-91
2022/07/02 00:37:15;;;;;;;2.03;1.70;;;12.50;99.90;;;;;;5075691;28;20458;-90
2022/07/02 00:39:42;;;;;;;2.50;1.83;;;12.40;99.90;;;;;;5075559;28;20473;-90
2022/07/02 00:42:09;;;;;;;4.20;1.70;;;12.40;99.90;;;;;;5075584;28;20470;-90
2022/07/02 00:44:36;;;;;;;2.20;1.50;;;12.40;99.90;;;;;;5075642;28;20430;-90
2022/07/02 00:47:06;;;;;;;2.63;1.70;;;12.40;99.90;;;;;;5075543;28;20466;-92
2022/07/02 00:49:33;;;;;;;1.93;1.43;;;12.40;99.90;;;;;;5075717;28;20463;-90
2022/07/02 00:52:00;;;;;;;1.90;1.70;;;12.40;99.90;;;;;;5075882;28;20462;-90
2022/07/02 00:54:29;;;;;;;2.40;1.83;;;12.40;99.90;;;;;;5075882;28;20505;-89
2022/07/02 00:56:55;;;;;;;2.83;2.13;;;12.40;99.90;;;;;;5075811;28;20463;-90
2022/07/02 00:59:23;;;;;;;1.80;1.70;;;12.40;99.90;;;;;;5074972;28;20511;-89
2022/07/02 01:01:51;;;;;;;1.70;1.50;;;12.40;99.90;;;;;;5075533;28;20956;-91
2022/07/02 01:04:17;;;;;;;2.63;1.87;;;12.40;99.90;;;;;;5074936;28;20486;-90
2022/07/02 01:06:45;;;;;;;2.10;1.90;;;12.40;99.90;;;;;;5074798;28;20463;-91
2022/07/02 01:12:01;;;;;;;2.50;1.67;;;12.40;99.90;;;;;;5074849;28;20442;-91
2022/07/02 01:14:28;;;;;;;2.90;1.67;;;12.40;99.90;;;;;;5074731;28;20902;-91
2022/07/02 01:16:55;;;;;;;2.20;1.70;;;12.50;99.90;;;;;;5074490;28;20470;-91
2022/07/02 01:19:23;;;;;;;2.10;1.77;;;12.40;99.90;;;;;;5074146;28;20826;-91
2022/07/02 01:22:13;;;;;;;1.80;1.70;;;12.40;99.90;;;;;;5074428;28;20458;-91
2022/07/02 01:24:41;;;;;;;1.77;1.40;;;12.50;99.90;;;;;;5074121;28;20497;-90
2022/07/02 01:27:07;;;;;;;1.50;1.40;;;12.50;99.90;;;;;;5074595;28;20463;-90
2022/07/02 01:29:34;;;;;;;1.70;1.60;;;12.50;99.90;;;;;;5074293;28;20845;-91
2022/07/02 01:32:01;;;;;;;2.10;2.00;;;12.50;99.90;;;;;;5074711;28;20456;-91
2022/07/02 01:34:28;;;;;;;1.60;1.50;;;12.50;99.90;;;;;;5074101;28;20478;-90
2022/07/02 01:36:55;;;;;;;4.67;1.90;;;12.50;99.90;;;;;;5073941;28;20467;-90
2022/07/02 01:39:26;;;;;;;3.20;1.50;;;12.50;99.90;;;;;;5074081;28;20504;-91
2022/07/02 01:41:53;;;;;;;3.23;1.97;;;12.40;99.90;;;;;;5074306;28;20466;-91
2022/07/02 01:44:21;;;;;;;6.83;1.53;;;12.40;99.90;;;;;;5074562;28;20471;-90
2022/07/02 01:46:48;;;;;;;3.90;1.50;;;12.40;99.90;;;;;;5074219;28;20473;-90
2022/07/02 01:49:14;;;;;;;4.00;3.00;;;12.40;99.90;;;;;;5074141;28;20463;-92
2022/07/02 01:51:41;;;;;;;1.97;1.80;;;12.30;99.90;;;;;;5074160;28;20466;-91
2022/07/02 01:54:08;;;;;;;2.67;1.58;;;12.30;99.90;;;;;;5074211;28;20475;-90
2022/07/02 01:56:37;;;;;;;2.83;1.77;;;12.30;99.90;;;;;;5073725;28;20220;-90
2022/07/02 01:59:04;;;;;;;2.20;1.70;;;12.30;99.90;;;;;;5073729;28;20462;-91
2022/07/02 02:01:31;;;;;;;1.70;1.60;;;12.30;99.90;;;;;;5073547;28;20451;-91
2022/07/02 02:03:57;;;;;;;2.07;1.73;;;12.30;99.90;;;;;;5073383;28;20478;-91
2022/07/02 02:06:24;;;;;;;3.37;1.63;;;12.20;99.90;;;;;;5073440;28;20990;-92
2022/07/02 02:08:51;;;;;;;1.83;1.63;;;12.20;99.90;;;;;;5073618;28;20458;-92
2022/07/02 02:11:17;;;;;;;1.50;1.40;;;12.20;99.90;;;;;;5073711;28;20200;-93
2022/07/02 02:13:46;;;;;;;1.63;1.43;;;12.20;99.90;;;;;;5074218;28;20478;-91
2022/07/02 02:16:12;;;;;;;2.37;1.67;;;12.20;99.90;;;;;;5073659;28;20486;-91
2022/07/02 02:18:39;;;;;;;2.15;1.70;;;12.20;99.90;;;;;;5073949;28;20511;-90
2022/07/02 02:21:06;;;;;;;2.47;1.40;;;12.20;99.90;;;;;;5073362;28;20215;-91
2022/07/02 02:23:32;;;;;;;2.00;1.70;;;12.20;99.90;;;;;;5073437;28;20522;-90
2022/07/02 02:25:59;;;;;;;2.10;2.00;;;12.10;99.90;;;;;;5073562;28;20459;-90
2022/07/02 02:28:26;;;;;;;1.80;1.50;;;12.10;99.90;;;;;;5073492;28;20462;-92
2022/07/02 02:30:54;;;;;;;1.77;1.53;;;12.10;99.90;;;;;;5073293;28;20474;-91
2022/07/02 02:33:21;;;;;;;1.80;1.70;;;12.10;99.90;;;;;;5073732;28;20479;-90
2022/07/02 02:35:47;;;;;;;1.83;1.73;;;12.00;99.90;;;;;;5073106;28;20224;-90
2022/07/02 02:38:14;;;;;;;1.77;1.67;;;12.00;99.90;;;;;;5073523;28;20209;-90
2022/07/02 02:40:41;;;;;;;2.10;1.90;;;12.00;99.90;;;;;;5073325;28;20802;-91
2022/07/02 02:43:07;;;;;;;3.60;2.20;;;12.00;99.90;;;;;;5073462;28;20998;-91
2022/07/02 02:45:34;;;;;;;2.10;1.90;;;12.00;99.90;;;;;;5073812;28;20484;-90
2022/07/02 02:48:02;;;;;;;2.20;2.00;;;12.00;99.90;;;;;;5073245;28;20474;-90
2022/07/02 02:50:29;;;;;;;2.40;1.90;;;11.90;99.90;;;;;;5073495;28;20474;-90
2022/07/02 02:52:56;;;;;;;1.97;1.77;;;11.90;99.90;;;;;;5073311;28;20596;-92
2022/07/02 02:55:22;;;;;;;5.60;2.00;;;11.90;99.90;;;;;;5073244;28;20478;-91
2022/07/02 02:57:49;;;;;;;3.47;2.20;;;11.90;99.90;;;;;;5073573;28;20462;-91
2022/07/02 03:00:16;;;;;;;2.47;1.90;;;11.90;99.90;;;;;;5073036;28;20474;-90
2022/07/02 03:02:42;;;;;;;2.50;1.90;;;11.90;99.90;;;;;;5073201;28;20326;-90
2022/07/02 03:05:11;;;;;;;1.95;1.77;;;11.90;99.90;;;;;;5073043;28;20215;-91
2022/07/02 03:07:37;;;;;;;2.60;1.97;;;11.90;99.90;;;;;;5073175;28;20212;-91
2022/07/02 03:10:05;;;;;;;1.85;1.45;;;11.90;99.90;;;;;;5075699;28;20469;-91
2022/07/02 03:12:31;;;;;;;1.87;1.67;;;11.90;99.90;;;;;;5076793;28;20200;-91
2022/07/02 03:14:58;;;;;;;1.73;1.60;;;11.80;99.90;;;;;;5076284;28;20458;-90
2022/07/02 03:17:25;;;;;;;1.60;1.50;;;11.80;99.90;;;;;;5073435;28;20227;-91
2022/07/02 03:19:52;;;;;;;1.60;1.50;;;11.80;99.90;;;;;;5073115;28;20203;-92
2022/07/02 03:22:20;;;;;;;2.03;1.70;;;11.70;99.90;;;;;;5072892;28;20201;-91
2022/07/02 03:24:46;;;;;;;1.60;1.50;;;11.70;99.90;;;;;;5072694;28;20512;-91
2022/07/02 03:27:13;;;;;;;2.20;2.00;;;11.70;99.90;;;;;;5073157;28;20207;-91
2022/07/02 03:29:40;;;;;;;2.17;1.97;;;11.70;99.90;;;;;;5072827;28;20963;-92
2022/07/02 03:32:07;;;;;;;3.15;2.72;;;11.70;99.90;;;;;;5072816;28;20963;-91
2022/07/02 03:34:34;;;;;;;2.30;2.10;;;11.70;99.90;;;;;;5072997;28;20239;-90
2022/07/02 03:37:01;;;;;;;2.83;2.08;;;11.70;99.90;;;;;;5072642;28;20286;-91
2022/07/02 03:39:29;;;;;;;2.20;2.00;;;11.70;99.90;;;;;;5072797;28;20207;-90
2022/07/02 03:41:55;;;;;;;3.45;2.20;;;11.70;99.90;;;;;;5073057;28;20205;-90
2022/07/02 03:44:22;;;;;;;3.15;2.33;;;11.70;99.90;;;;;;5073039;28;20224;-90
2022/07/02 03:46:49;;;;;;;2.97;2.38;;;11.70;99.90;;;;;;5072637;28;20215;-90
2022/07/02 03:49:15;;;;;;;5.00;2.60;;;11.70;99.90;;;;;;5094826;28;20184;-92
2022/07/02 03:51:42;;;;;;;2.40;2.20;;;11.70;99.90;;;;;;5100520;28;20191;-94
2022/07/02 03:54:09;;;;;;;2.27;2.07;;;11.70;99.90;;;;;;5083566;28;20843;-90
2022/07/02 03:56:37;;;;;;;2.33;2.03;;;11.70;99.90;;;;;;5078255;28;20490;-92
2022/07/02 03:59:04;;;;;;;2.63;2.42;;;11.70;99.90;;;;;;5077793;28;20207;-91
2022/07/02 04:01:30;;;;;;;2.47;2.28;;;11.70;99.90;;;;;;5077666;28;20620;-91
2022/07/02 04:03:57;;;;;;;3.05;2.75;;;11.70;99.90;;;;;;5077691;28;20224;-90
2022/07/02 04:06:24;;;;;;;6.05;3.15;;;11.80;99.90;;;;;;5076451;28;20207;-90
2022/07/02 04:08:50;;;;;;;3.78;2.67;;;11.80;99.90;;;;;;5076174;28;20684;-91
2022/07/02 04:11:17;;;;;;;3.65;3.20;;;11.80;99.90;;;;;;5076024;28;20201;-90
2022/07/02 04:13:45;;;;;;;2.80;2.60;;;11.80;99.90;;;;;;5076369;28;20224;-90
2022/07/02 04:16:12;;;;;;;3.38;2.70;;;11.80;99.90;;;;;;5075850;28;20231;-90
2022/07/02 04:18:38;;;;;;;3.05;2.85;;;11.80;99.90;;;;;;5076046;28;20251;-90
2022/07/02 04:21:05;;;;;;;3.15;2.85;;;11.90;99.90;;;;;;5075811;28;20289;-90
2022/07/02 04:23:32;;;;;;;3.67;3.30;;;11.90;99.90;;;;;;5101893;22;20278;-96
2022/07/02 04:25:59;;;;;;;3.50;2.60;;;11.90;99.90;;;;;;5084597;28;20463;-94
2022/07/02 04:28:26;;;;;;;2.72;2.50;;;11.90;99.90;;;;;;5087988;28;20454;-94
2022/07/02 04:30:54;;;;;;;5.03;3.30;;;12.00;99.90;;;;;;5086196;28;20205;-94
2022/07/02 04:33:21;;;;;;;3.35;3.05;;;12.00;99.90;;;;;;5086052;28;20462;-94
2022/07/02 04:35:48;;;;;;;3.07;2.77;;;12.10;99.90;;;;;;5066250;28;20221;-94
2022/07/02 04:38:15;;;;;;;3.67;3.03;;;12.10;99.90;;;;;;5067173;28;20463;-94
2022/07/02 04:40:42;;;;;;;3.73;2.43;;;12.10;99.90;;;;;;5067552;28;20490;-94
2022/07/02 04:43:09;;;;;;;3.67;3.00;;;12.10;99.90;;;;;;5071477;28;20466;-93
2022/07/02 04:45:39;;;;;;;2.78;2.58;;;12.20;99.90;;;;;;5063576;28;20578;-94
2022/07/02 04:48:08;;;;;;;3.20;3.00;;;12.20;99.90;;;;;;5064740;28;20627;-94
2022/07/02 04:50:34;;;;;;;3.60;2.80;;;12.30;99.90;;;;;;5064493;28;20898;-94
2022/07/02 04:53:01;;;;;;;3.13;2.87;;;12.30;99.90;;;;;;5064684;28;20455;-94
2022/07/02 04:55:31;;;;;;;3.50;3.10;;;12.40;99.90;;;;;;5073731;28;21128;-96
2022/07/02 04:57:58;;;;;;;3.93;3.63;;;12.40;99.90;;;;;;5080267;28;20456;-95
2022/07/02 05:00:25;;;;;;;5.27;4.80;;;12.50;99.90;;;;;;5079332;28;20436;-94
2022/07/02 05:02:52;;;;;;;7.13;4.20;;;12.60;99.90;;;;;;5080024;28;20441;-95
2022/07/02 05:05:21;;;;;;;5.67;4.53;;;12.70;99.90;;;;;;5066319;28;20480;-92
2022/07/02 05:07:48;;;;;;;4.67;4.27;;;12.70;99.90;;;;;;5066097;28;20527;-92
2022/07/02 05:10:50;;;;;;;4.47;4.07;;;12.80;99.90;;;;;;5065613;28;20459;-94
2022/07/02 05:13:18;;;;;;;5.40;4.90;;;12.90;99.90;;;;;;5063940;28;20459;-93
2022/07/02 05:15:45;;;;;;;5.80;4.50;;;13.00;99.90;;;;;;5063644;28;20723;-94
2022/07/02 05:18:12;;;;;;;5.70;5.10;;;13.10;99.90;;;;;;5064367;28;20464;-94
2022/07/02 05:21:31;;;;;;;6.07;4.63;;;13.10;99.90;;;;;;5062767;28;20464;-94
2022/07/02 05:23:58;;;;;;;5.67;4.90;;;13.20;99.90;;;;;;5053881;28;20496;-95
2022/07/02 05:26:26;;;;;;;6.50;5.67;;;13.30;99.90;;;;;;5064968;28;20523;-92
2022/07/02 05:28:52;;;;;;;6.57;5.97;;;13.40;99.90;;;;;;5063509;28;20448;-93
2022/07/02 05:31:19;;;;;;;6.87;6.13;;;13.50;99.90;;;;;;5064280;28;20481;-93
2022/07/02 05:33:46;;;;;;;7.70;6.40;;;13.50;99.90;;;;;;5064998;28;20483;-93
2022/07/02 05:36:14;;;;;;;8.07;6.23;;;13.60;99.90;;;;;;5065605;28;20490;-92
2022/07/02 05:38:41;;;;;;;5.97;5.40;;;13.80;99.90;;;;;;5064021;28;20455;-92
2022/07/02 05:41:08;;;;;;;5.80;5.23;;;13.80;99.90;;;;;;5064302;28;20460;-93
2022/07/02 05:43:35;;;;;;;6.67;5.50;;;13.90;99.90;;;;;;5061533;28;20455;-92
2022/07/02 05:46:02;;;;;;;6.00;5.50;;;14.00;99.90;;;;;;5060988;28;20463;-93
2022/07/02 05:48:28;;;;;;;6.20;5.60;;;14.10;99.90;;;;;;5061681;28;20521;-93
2022/07/02 05:50:55;;;;;;;6.67;5.80;;;14.10;99.90;;;;;;5064172;28;20467;-93
2022/07/02 05:53:23;;;;;;;6.97;5.27;;;14.20;99.90;;;;;;5074597;28;20447;-93
2022/07/02 05:55:50;;;;;;;5.10;4.53;;;14.30;99.90;;;;;;5060330;28;20463;-92
2022/07/02 05:58:17;;;;;;;6.30;4.73;;;14.40;99.90;;;;;;5055960;28;20456;-93
2022/07/02 06:00:43;;;;;;;5.30;4.80;;;14.50;99.90;;;;;;5055270;28;20467;-92
2022/07/02 06:03:10;;;;;;;7.23;4.90;;;14.50;99.90;;;;;;5054966;28;20459;-93
2022/07/02 06:08:25;;;;;;;5.10;4.63;;;14.80;99.90;;;;;;5060711;28;20447;-94
2022/07/02 06:10:53;;;;;;;6.43;4.50;;;14.90;99.90;;;;;;5057234;28;20462;-93
2022/07/02 06:13:20;;;;;;;4.83;4.33;;;15.00;99.90;;;;;;5058065;28;20702;-93
2022/07/02 06:15:49;;;;;;;4.80;4.30;;;15.00;99.90;;;;;;5057456;28;20464;-93
2022/07/02 06:18:15;;;;;;;4.70;4.10;;;15.10;99.90;;;;;;5057149;28;20483;-94
2022/07/02 06:20:42;;;;;;;5.60;4.23;;;15.20;99.90;;;;;;5056849;28;20474;-94
2022/07/02 06:23:09;;;;;;;4.00;3.60;;;15.20;99.90;;;;;;5057807;28;20498;-95
2022/07/02 06:25:38;;;;;;;4.90;4.40;;;15.30;99.90;;;;;;5059054;28;20491;-94
2022/07/02 06:28:05;;;;;;;3.90;3.60;;;15.40;99.90;;;;;;5057750;28;20555;-93
2022/07/02 06:30:32;;;;;;;4.60;4.03;;;15.50;99.90;;;;;;5059156;28;20512;-93
2022/07/02 06:32:58;;;;;;;3.40;3.10;;;15.50;99.90;;;;;;5058221;28;20534;-94
2022/07/02 06:35:25;;;;;;;4.90;3.67;;;15.60;99.90;;;;;;5056592;28;20483;-94
2022/07/02 06:37:53;;;;;;;3.50;3.20;;;15.70;99.90;;;;;;5059977;28;20470;-94
2022/07/02 06:40:22;;;;;;;7.37;3.70;;;15.80;99.90;;;;;;5058751;28;20956;-94
2022/07/02 06:42:50;;;;;;;3.60;3.17;;;15.80;99.90;;;;;;5059825;28;20467;-94
2022/07/02 06:45:17;;;;;;;3.60;3.30;;;15.90;99.90;;;;;;5059854;28;20514;-93
2022/07/02 06:47:44;;;;;;;3.43;2.97;;;16.00;99.90;;;;;;5059926;28;20531;-94
2022/07/02 06:50:12;;;;;;;3.80;3.07;;;16.10;99.90;;;;;;5058050;28;20826;-94
2022/07/02 06:52:42;;;;;;;3.67;2.80;;;16.20;99.90;;;;;;5059133;28;20474;-93
2022/07/02 06:55:09;;;;;;;3.33;2.43;;;16.20;99.90;;;;;;5066603;28;20479;-94
2022/07/02 06:57:36;;;;;;;3.73;2.83;;;16.30;99.90;;;;;;5056247;28;20483;-93
2022/07/02 07:00:06;;;;;;;2.60;2.40;;;16.40;99.90;;;;;;5055351;28;20470;-94
2022/07/02 07:02:33;;;;;;;2.30;2.10;;;16.50;99.90;;;;;;5055758;28;20463;-93
2022/07/02 07:05:00;;;;;;;2.30;2.10;;;16.60;99.90;;;;;;5058105;28;20484;-94
2022/07/02 07:07:28;;;;;;;2.30;2.10;;;16.70;99.90;;;;;;5065641;28;20538;-93
2022/07/02 07:09:55;;;;;;;2.63;2.10;;;16.70;99.90;;;;;;5060705;28;20469;-94
2022/07/02 07:12:22;;;;;;;2.60;2.40;;;16.80;99.90;;;;;;5064758;28;20467;-93
2022/07/02 07:14:49;;;;;;;2.20;2.00;;;16.90;99.90;;;;;;5064768;28;20487;-93
2022/07/02 07:17:18;;;;;;;2.20;2.00;;;16.90;99.90;;;;;;5064393;28;20480;-93
2022/07/02 07:19:44;;;;;;;3.10;1.83;;;16.90;99.90;;;;;;5057252;28;20459;-94
2022/07/02 07:22:11;;;;;;;3.00;2.17;;;17.00;99.90;;;;;;5062143;28;20451;-93
2022/07/02 07:24:38;;;;;;;2.43;1.83;;;17.10;99.90;;;;;;5021569;28;1173628;-92
2022/07/02 07:27:06;;;;;;;1.53;1.40;;;17.20;99.90;;;;;;5060417;28;20204;-92
2022/07/02 07:29:35;;;;;;;2.80;1.90;;;17.40;99.90;;;;;;5061641;28;20471;-92
2022/07/02 07:32:02;;;;;;;1.60;1.50;;;17.40;99.90;;;;;;5062253;28;20561;-93
2022/07/02 07:34:30;;;;;;;1.57;1.47;;;17.50;99.90;;;;;;5061996;28;20502;-93
2022/07/02 07:36:58;;;;;;;1.80;1.70;;;17.60;99.90;;;;;;5079561;28;20479;-93
2022/07/02 07:39:25;;;;;;;1.50;1.33;;;17.70;99.90;;;;;;5079157;28;20454;-93
2022/07/02 07:41:52;;;;;;;2.00;1.40;;;17.70;99.90;;;;;;5086872;28;20484;-94
2022/07/02 07:44:19;;;;;;;1.43;1.30;;;17.80;99.90;;;;;;5086351;28;20482;-92
2022/07/02 07:46:45;;;;;;;3.30;1.17;;;17.80;99.90;;;;;;5089623;28;20454;-94
2022/07/02 07:49:14;;;;;;;1.50;1.40;;;17.90;99.90;;;;;;5088111;28;20466;-94
2022/07/02 07:51:42;;;;;;;1.70;1.40;;;17.90;99.90;;;;;;5088373;28;20801;-93
2022/07/02 07:54:09;;;;;;;1.63;1.53;;;18.00;99.90;;;;;;5087322;28;20474;-93
2022/07/02 07:56:41;;;;;;;2.83;1.70;;;18.10;99.90;;;;;;5079898;28;20461;-91
2022/07/02 07:59:08;;;;;;;1.70;1.57;;;18.20;99.90;;;;;;5078837;28;20497;-92
2022/07/02 08:01:35;;;;;;;2.60;1.60;;;18.30;99.90;;;;;;5083302;28;20458;-92
2022/07/02 08:04:02;;;;;;;1.53;1.30;;;18.40;99.90;;;;;;5079058;28;20474;-94
2022/07/02 08:06:28;;;;;;;3.93;1.43;;;18.40;99.90;;;;;;5081225;28;20462;-94
2022/07/02 08:08:57;;;;;;;1.67;1.20;;;18.60;99.90;;;;;;5067876;28;20452;-93
2022/07/02 08:11:23;;;;;;;1.50;1.30;;;18.60;99.90;;;;;;5067107;28;20482;-92
2022/07/02 08:13:50;;;;;;;1.40;1.20;;;18.70;99.90;;;;;;5061228;28;20493;-92
2022/07/02 08:16:17;;;;;;;2.03;1.63;;;18.80;99.90;;;;;;5063826;28;20451;-92
2022/07/02 08:18:44;;;;;;;2.20;1.90;;;18.80;99.90;;;;;;5078178;28;20482;-95
2022/07/02 08:21:11;;;;;;;2.33;1.27;;;18.90;99.90;;;;;;5099776;28;20438;-93
2022/07/02 08:23:37;;;;;;;1.50;1.40;;;19.00;99.90;;;;;;5105308;22;20525;-72
2022/07/02 08:26:06;;;;;;;1.90;1.80;;;19.10;99.90;;;;;;5090861;28;20963;-72
2022/07/02 08:28:32;;;;;;;1.40;1.30;;;19.20;99.90;;;;;;5109687;28;20469;-71
2022/07/02 08:31:00;;;;;;;1.50;1.40;;;19.30;99.90;;;;;;5113319;28;20448;-71
2022/07/02 08:33:27;;;;;;;3.70;1.43;;;19.30;99.90;;;;;;5113821;28;20503;-71
2022/07/02 08:35:54;;;;;;;1.60;1.30;;;19.40;99.90;;;;;;5113946;28;20456;-71
2022/07/02 08:38:21;;;;;;;3.80;1.47;;;19.50;99.90;;;;;;5113299;28;20480;-71
2022/07/02 08:40:49;;;;;;;4.07;1.43;;;19.50;99.90;;;;;;5113232;28;20483;-71
2022/07/02 08:43:18;;;;;;;1.90;1.70;;;19.40;99.90;;;;;;5113666;28;20951;-71
2022/07/02 08:45:45;;;;;;;2.70;1.60;;;19.40;99.90;;;;;;5113711;28;20457;-71
2022/07/02 08:48:12;;;;;;;2.00;1.40;;;19.50;99.90;;;;;;5113425;28;21160;-72
2022/07/02 08:50:40;;;;;;;3.40;1.23;;;19.60;99.90;;;;;;5113053;28;20456;-71
2022/07/02 08:53:08;;;;;;;1.17;1.07;;;19.70;99.90;;;;;;5113626;28;20460;-71
2022/07/02 08:55:36;;;;;;;1.63;1.20;;;19.80;99.90;;;;;;5113556;28;20460;-71
2022/07/02 08:58:03;;;;;;;1.40;1.10;;;19.90;99.90;;;;;;5113234;28;20477;-70
2022/07/02 09:00:32;;;;;;;1.30;1.03;;;20.10;99.90;;;;;;5112894;28;20472;-71
2022/07/02 09:02:59;;;;;;;1.50;1.40;;;20.20;99.90;;;;;;5113371;28;20853;-71
2022/07/02 09:05:27;;;;;;;1.50;1.40;;;20.40;99.90;;;;;;5113240;28;20464;-71
2022/07/02 09:07:56;;;;;;;1.30;1.20;;;20.60;99.90;;;;;;5113140;28;20479;-71
2022/07/02 09:10:24;;;;;;;1.30;1.20;;;20.60;99.90;;;;;;5112521;28;20889;-71
2022/07/02 09:12:53;;;;;;;1.10;1.00;;;20.60;99.90;;;;;;5113278;28;20840;-70
2022/07/02 09:15:19;;;;;;;1.13;1.03;;;20.70;99.90;;;;;;5112948;28;20506;-71
2022/07/02 09:17:48;;;;;;;2.27;1.20;;;20.80;99.90;;;;;;5113068;28;20484;-71
2022/07/02 09:20:15;;;;;;;2.10;1.30;;;21.00;99.90;;;;;;5112222;28;20467;-71
2022/07/02 09:22:43;;;;;;;1.03;0.93;;;21.10;99.90;;;;;;5112962;28;20468;-70
2022/07/02 09:25:13;;;;;;;1.23;1.00;;;21.10;99.90;;;;;;5113150;28;20486;-71
2022/07/02 09:27:40;;;;;;;3.13;2.10;;;21.10;99.90;;;;;;5112785;28;20483;-71
2022/07/02 09:30:08;;;;;;;1.50;1.23;;;21.10;99.90;;;;;;5112197;28;20468;-71
2022/07/02 09:32:40;;;;;;;1.57;1.33;;;21.10;99.90;;;;;;5112973;28;20460;-71
2022/07/02 09:35:17;;;;;;;1.27;1.07;;;21.20;99.90;;;;;;5112694;28;20814;-71
2022/07/02 09:37:43;;;;;;;1.20;1.10;;;21.30;99.90;;;;;;5112554;28;20904;-71
2022/07/02 09:40:11;;;;;;;1.40;1.10;;;21.50;99.90;;;;;;5112005;28;20865;-71
2022/07/02 09:42:38;;;;;;;1.10;1.00;;;21.60;99.90;;;;;;5112872;28;20465;-71
2022/07/02 09:45:09;;;;;;;1.43;1.33;;;21.70;99.90;;;;;;5112288;28;20461;-71
2022/07/02 09:47:38;;;;;;;1.20;1.10;;;21.90;99.90;;;;;;5112207;28;20475;-72
2022/07/02 09:50:09;;;;;;;1.33;1.10;;;22.10;99.90;;;;;;5111769;28;20463;-71
2022/07/02 09:52:36;;;;;;;1.73;1.20;;;22.20;99.90;;;;;;5112214;28;20465;-71
2022/07/02 09:55:04;;;;;;;1.23;1.13;;;22.20;99.90;;;;;;5112295;28;20465;-71
2022/07/02 09:57:31;;;;;;;1.50;1.20;;;22.30;99.90;;;;;;5112144;28;20481;-71
2022/07/02 10:00:06;;;;;;;2.03;1.30;;;22.40;99.90;;;;;;5111936;28;20460;-71
2022/07/02 10:02:32;;;;;;;1.27;1.17;;;22.50;99.90;;;;;;5112429;28;20460;-71
2022/07/02 10:05:05;;;;;;;1.47;1.20;;;22.60;99.90;;;;;;5112219;28;20471;-72
2022/07/02 10:07:33;;;;;;;1.17;1.07;;;22.60;99.90;;;;;;5099272;28;20481;-71
2022/07/02 10:10:04;;;;;;;1.33;1.00;;;22.70;99.90;;;;;;5091426;28;20466;-71
2022/07/02 10:12:31;;;;;;;1.13;1.03;;;22.80;99.90;;;;;;5091044;28;20481;-71
2022/07/02 10:14:59;;;;;;;1.40;1.17;;;22.70;99.90;;;;;;5089861;28;20461;-71
2022/07/02 10:17:28;;;;;;;2.03;0.90;;;22.70;99.90;;;;;;5088515;28;20489;-71
2022/07/02 10:19:57;;;;;;;1.80;1.17;;;22.70;99.90;;;;;;5087792;28;20469;-71
2022/07/02 10:22:25;;;;;;;1.33;1.20;;;22.70;99.90;;;;;;5090073;28;20461;-72
2022/07/02 10:24:54;;;;;;;1.77;1.20;;;22.80;99.90;;;;;;5088314;28;20466;-72
2022/07/02 10:27:21;;;;;;;1.67;1.20;;;23.00;99.90;;;;;;5088566;28;20482;-71
2022/07/02 10:29:49;;;;;;;1.50;1.40;;;23.20;99.90;;;;;;5088218;28;20905;-71
2022/07/02 10:32:23;;;;;;;1.47;1.00;;;23.30;99.90;;;;;;5088340;28;20839;-71
2022/07/02 10:34:55;;;;;;;1.70;1.20;;;23.30;99.90;;;;;;5088250;28;20468;-71
2022/07/02 10:37:22;;;;;;;1.50;1.03;;;23.30;99.90;;;;;;5088101;28;20477;-71
2022/07/02 10:39:49;;;;;;;1.10;1.00;;;23.40;99.90;;;;;;5087467;28;20816;-71
2022/07/02 10:42:17;;;;;;;1.20;1.10;;;23.40;99.90;;;;;;5088778;28;20469;-70
2022/07/02 10:44:45;;;;;;;1.63;1.33;;;23.40;99.90;;;;;;5088696;28;20461;-70
2022/07/02 10:47:19;;;;;;;1.27;1.10;;;23.50;99.90;;;;;;5088282;28;20493;-70
2022/07/02 10:49:58;;;;;;;1.10;0.93;;;23.50;99.70;;;;;;5087365;28;20454;-71
2022/07/02 10:52:48;;;;;;;1.30;1.07;;;23.50;99.90;;;;;;5088058;28;20518;-70
2022/07/02 10:55:25;;;;;;;3.10;1.30;;;23.40;99.70;;;;;;5088381;28;20504;-70
2022/07/02 10:57:57;;;;;;;1.40;1.17;;;23.50;99.30;;;;;;5087105;28;20489;-70
2022/07/02 11:00:28;;;;;;;1.53;1.20;;;23.50;99.90;;;;;;5087552;28;20464;-70
2022/07/02 11:02:59;;;;;;;2.03;1.23;;;23.60;99.90;;;;;;5088364;28;20471;-70
2022/07/02 11:05:26;;;;;;;1.73;1.07;;;23.80;99.90;;;;;;5088706;28;20459;-70
2022/07/02 11:07:53;;;;;;;1.13;1.00;;;24.00;99.90;;;;;;5087656;28;20491;-72
2022/07/02 11:10:28;;;;;;;1.37;1.00;;;24.10;99.90;;;;;;5088079;28;20469;-70
2022/07/02 11:13:01;;;;;;;1.10;1.00;;;24.20;99.90;;;;;;5087929;28;20469;-70
2022/07/02 11:15:35;;;;;;;1.23;1.13;;;24.30;99.90;;;;;;5088297;28;20464;-70
2022/07/02 11:18:06;;;;;;;2.63;1.10;;;24.30;99.90;;;;;;5087522;28;20485;-70
2022/07/02 11:20:35;;;;;;;1.07;0.93;;;24.30;97.10;;;;;;5087749;28;20642;-71
2022/07/02 11:23:02;;;;;;;1.10;0.97;;;24.40;99.90;;;;;;5088215;28;20501;-70
2022/07/02 11:25:30;;;;;;;2.33;1.17;;;24.60;99.90;;;;;;5088525;28;20489;-70
2022/07/02 11:28:00;;;;;;;2.23;1.20;;;24.70;97.50;;;;;;5087741;28;20477;-70
2022/07/02 11:30:29;;;;;;;2.33;1.10;;;24.70;99.20;;;;;;5087902;28;20965;-72
2022/07/02 11:33:01;;;;;;;1.30;1.20;;;24.80;99.90;;;;;;5088779;28;20461;-70
2022/07/02 11:35:28;;;;;;;1.43;1.33;;;25.00;99.30;;;;;;5090322;28;20457;-70
2022/07/02 11:37:59;;;;;;;1.73;1.27;;;25.10;96.70;;;;;;5087676;28;20485;-70
2022/07/02 11:40:26;;;;;;;1.17;1.03;;;25.00;97.30;;;;;;5087648;28;20457;-71
2022/07/02 11:42:53;;;;;;;1.40;1.00;;;25.00;97.50;;;;;;5087731;28;20833;-71
2022/07/02 11:45:21;;;;;;;1.77;1.60;;;25.00;97.80;;;;;;5088225;28;20462;-71
2022/07/02 11:47:49;;;;;;;1.80;1.03;;;25.10;95.50;;;;;;5088186;28;20486;-71
2022/07/02 11:50:26;;;;;;;1.50;1.00;;;25.00;97.10;;;;;;5087362;28;20461;-72
2022/07/02 11:52:53;;;;;;;1.30;1.10;;;25.10;96.60;;;;;;5088548;28;20467;-71
2022/07/02 11:55:20;;;;;;;1.40;1.00;;;25.00;96.00;;;;;;5090750;28;20462;-72
2022/07/02 11:57:47;;;;;;;1.60;1.20;;;24.90;96.90;;;;;;5090784;28;20485;-72
2022/07/02 12:00:14;;;;;;;1.60;1.00;;;25.10;98.60;;;;;;5087361;28;20466;-71
2022/07/02 12:02:43;;;;;;;2.07;1.23;;;25.20;98.80;;;;;;5088597;28;20462;-71
2022/07/02 12:05:18;;;;;;;1.63;0.80;;;25.30;95.10;;;;;;5096916;28;20471;-71
2022/07/02 12:07:45;;;;;;;1.40;1.30;;;25.40;99.00;;;;;;5108185;28;20819;-72
2022/07/02 12:10:13;;;;;;;2.33;1.30;;;25.60;97.70;;;;;;5110596;28;20939;-71
2022/07/02 12:12:40;;;;;;;1.87;1.10;;;25.80;99.60;;;;;;5112324;28;20460;-71
2022/07/02 12:15:08;;;;;;;1.17;1.07;;;25.80;99.00;;;;;;5111611;28;20959;-72
2022/07/02 12:17:36;;;;;;;1.00;0.90;;;26.00;99.60;;;;;;5112050;28;20507;-72
2022/07/02 12:20:05;;;;;;;1.00;0.90;;;26.20;99.40;;;;;;5111464;28;20472;-72
2022/07/02 12:22:33;;;;;;;1.90;1.30;;;26.30;99.70;;;;;;5111928;28;20459;-72
2022/07/02 12:25:00;;;;;;;1.53;1.43;;;26.40;98.40;;;;;;5111158;28;20459;-72
2022/07/02 12:27:27;;;;;;;1.30;1.00;;;26.30;97.10;;;;;;5111764;28;20485;-72
2022/07/02 12:29:53;;;;;;;1.10;1.00;;;26.30;98.10;;;;;;5111180;28;20459;-71
2022/07/02 12:32:21;;;;;;;1.13;1.03;;;26.30;97.10;;;;;;5111843;28;20457;-72
2022/07/02 12:34:49;;;;;;;1.30;1.10;;;26.20;96.00;;;;;;5111052;28;20214;-71
2022/07/02 12:37:25;;;;;;;2.07;1.23;;;26.10;97.00;;;;;;5111783;28;20480;-71
2022/07/02 12:39:59;;;;;;;1.27;1.17;;;26.30;98.60;;;;;;5110946;28;20522;-71
2022/07/02 12:42:26;;;;;;;2.70;1.30;;;26.40;97.90;;;;;;5105263;28;21149;-71
2022/07/02 12:44:55;;;;;;;1.43;1.20;;;26.30;96.60;;;;;;5090539;28;20458;-71
2022/07/02 12:47:27;;;;;;;1.47;1.20;;;26.30;97.80;;;;;;5091223;28;20485;-71
2022/07/02 12:49:56;;;;;;;1.10;1.00;;;26.40;96.20;;;;;;5103212;28;20833;-71
2022/07/02 12:52:24;;;;;;;1.10;1.00;;;26.30;94.10;;;;;;5092452;28;20833;-71
2022/07/02 12:54:51;;;;;;;1.20;1.10;;;26.00;95.30;;;;;;5090508;28;20863;-70
2022/07/02 12:57:19;;;;;;;1.43;1.07;;;26.00;96.40;;;;;;5090382;28;20509;-71